Bunker Hill, IN (46914)

7:16 PM EDT on July 01, 2015 (GMT -0400)
Elite Ag Solutions | | Change Station
CLOSE
Current Station
Personal Weather Station
Location: Peru, IN
Elevation: 812 ft
Nearby Weather Stations

Elev 812 ft 40.66 °N, 86.14 °W | Updated 4 minutes ago

Mostly Cloudy
Mostly Cloudy
72.1 °F
Feels Like 74 °F
N
4.0
Wind Variable Wind from North
Gusts 4.0 mph

Today
High -- | Low -- °F
--% Chance of Precip.
Yesterday
High -- | Low -- °F
Precip. -- in
6:17 AM 9:19 PM
Full, 100% visible
Pressure 29.91 in
Visibility 10.0 miles
Clouds Few 3200 ft
Mostly Cloudy 20000 ft
Heat Index 74 °F
Dew Point 63 °F
Humidity 73%
Rainfall in
Snow Depth Not available.
UV 1 out of 12
Pollen 3.50 out of 12
Air Quality Not available.
Flu Activity Not available.
METAR KGUS 012258Z 34007KT 10SM FEW032 BKN200 22/16 A2991 RMK AO2A SLP128 T02230160

More Conditions Fewer Conditions

Pressure 29.91 in
Visibility 10.0 miles
Clouds Few 3200 ft
Mostly Cloudy 20000 ft
Heat Index 74 °F
Dew Point 63 °F
Humidity 73%
Rainfall in
Snow Depth Not available.
UV 1 out of 12
Pollen 3.50 out of 12
Air Quality Not available.
Flu Activity Not available.
METAR KGUS 012258Z 34007KT 10SM FEW032 BKN200 22/16 A2991 RMK AO2A SLP128 T02230160

More Conditions Fewer Conditions

10-Day Weather Forecast

×

Almanac

Astronomy

Jul. 01, 2015 Rise Set
Actual Time
Civil Twilight
Nautical Twilight
Astronomical Twilight
Moon
Length of Visible Light
Length of Day
Tomorrow will be .
, % of the Moon is Illuminated

Today's Extremes

State Highs State Lows

Community

WunderPhotos

Upload Photos

1,834,335 photos uploaded!

WunderBlogs® & News

Nearby

Air Quality

  Air Quality AQ Index Pollutant
Not available.

Snow Depth

Station Depth Elevation

Earthquake Activity

City Distance Mag. Time & Date
Minimum magnitude displayed is 2.5.

Coastal Water Temperatures

Place Temperature

Stations

Nearby Weather Stations

Station Location Temp. Windchill Dew Point Humidity Wind Precip. Elev Updated Type